createdAt,value
2023-01-17T00:00:09.763Z,97334.06
2023-01-17T00:01:12.522Z,97320.53
2023-01-17T00:02:14.020Z,97325.47
2023-01-17T00:03:15.545Z,97318.91
2023-01-17T00:04:35.813Z,97321.38
2023-01-17T00:05:58.479Z,97340.44
2023-01-17T00:07:18.331Z,97337.78
2023-01-17T00:08:38.208Z,97325.69
2023-01-17T00:09:56.772Z,97334.28
2023-01-17T00:10:58.752Z,97331.22
2023-01-17T00:12:00.565Z,97336.75
2023-01-17T00:13:02.513Z,97335.13
2023-01-17T00:14:04.024Z,97335.13
2023-01-17T00:15:05.833Z,97345.16
2023-01-17T00:16:07.578Z,97357.38
2023-01-17T00:17:09.121Z,97348.25
2023-01-17T00:18:10.594Z,97353.47
2023-01-17T00:19:30.784Z,97351.72
2023-01-17T00:20:51.035Z,97352.16
2023-01-17T00:22:11.004Z,97345.28
2023-01-17T00:23:32.983Z,97350.28
2023-01-17T00:24:53.296Z,97367.72
2023-01-17T00:26:04.016Z,97364.03
2023-01-17T00:27:14.300Z,97372.34
2023-01-17T00:28:15.750Z,97367.94
2023-01-17T00:29:17.193Z,97363.00
2023-01-17T00:30:18.699Z,97370.91
2023-01-17T00:31:20.207Z,97370.59
2023-01-17T00:32:21.673Z,97382.66
2023-01-17T00:33:23.385Z,97376.31
2023-01-17T00:34:24.801Z,97380.53
2023-01-17T00:35:26.658Z,97392.41
2023-01-17T00:36:28.133Z,97374.47
2023-01-17T00:37:29.559Z,97383.09
2023-01-17T00:38:31.961Z,97385.53
2023-01-17T00:39:33.484Z,97392.72
2023-01-17T00:40:35.482Z,97373.66
2023-01-17T00:41:36.961Z,97387.81
2023-01-17T00:42:38.463Z,97385.03
2023-01-17T00:43:58.701Z,97381.34
2023-01-17T00:45:18.826Z,97382.34
2023-01-17T00:46:39.292Z,97383.28
2023-01-17T00:47:59.191Z,97384.72
2023-01-17T00:49:19.593Z,97406.03
2023-01-17T00:50:39.760Z,97395.16
2023-01-17T00:52:00.109Z,97398.56
2023-01-17T00:53:23.682Z,97407.25
2023-01-17T00:54:43.896Z,97412.38
2023-01-17T00:56:04.204Z,97428.22
2023-01-17T00:57:24.788Z,97426.69
2023-01-17T00:58:44.945Z,97424.84
2023-01-17T01:00:05.109Z,97425.34
2023-01-17T01:01:25.312Z,97424.84
2023-01-17T01:02:45.484Z,97430.13
2023-01-17T01:04:05.387Z,97433.94
2023-01-17T01:05:25.365Z,97426.97
2023-01-17T01:06:45.470Z,97438.56
2023-01-17T01:08:05.583Z,97442.34
2023-01-17T01:09:25.836Z,97454.44
2023-01-17T01:10:45.875Z,97447.78
2023-01-17T01:12:05.884Z,97446.44
2023-01-17T01:13:25.851Z,97450.06
2023-01-17T01:14:48.905Z,97447.56
2023-01-17T01:16:09.016Z,97460.25
2023-01-17T01:17:29.058Z,97461.63
2023-01-17T01:18:49.439Z,97469.91
2023-01-17T01:20:09.561Z,97464.97
2023-01-17T01:21:29.805Z,97474.38
2023-01-17T01:22:49.883Z,97477.06
2023-01-17T01:24:09.479Z,97473.53
2023-01-17T01:25:29.560Z,97483.97
2023-01-17T01:26:49.804Z,97483.16
2023-01-17T01:28:10.197Z,97500.13
2023-01-17T01:29:30.580Z,97499.19
2023-01-17T01:30:50.676Z,97498.66
2023-01-17T01:32:10.605Z,97491.09
2023-01-17T01:33:21.386Z,97502.75
2023-01-17T01:34:23.104Z,97516.34
2023-01-17T01:35:24.648Z,97508.44
2023-01-17T01:36:26.150Z,97503.72
2023-01-17T01:37:27.701Z,97508.44
2023-01-17T01:38:29.172Z,97519.28
2023-01-17T01:39:30.664Z,97515.63
2023-01-17T01:40:32.686Z,97518.59
2023-01-17T01:41:34.214Z,97521.38
2023-01-17T01:42:35.712Z,97524.66
2023-01-17T01:43:46.247Z,97523.22
2023-01-17T01:44:47.854Z,97520.63
2023-01-17T01:45:53.113Z,97525.63
2023-01-17T01:46:54.669Z,97531.06
2023-01-17T01:47:57.236Z,97532.41
2023-01-17T01:49:04.728Z,97531.81
2023-01-17T01:50:07.459Z,97534.56
2023-01-17T01:51:12.294Z,97536.22
2023-01-17T01:52:13.833Z,97537.03
2023-01-17T01:53:15.304Z,97538.69
2023-01-17T01:54:18.077Z,97545.63
2023-01-17T01:55:21.182Z,97541.44
2023-01-17T01:56:23.462Z,97545.84
2023-01-17T01:57:26.911Z,97543.91
2023-01-17T01:58:28.666Z,97540.94
2023-01-17T01:59:31.033Z,97544.72
2023-01-17T02:00:35.907Z,97548.50
2023-01-17T02:01:37.532Z,97544.31
2023-01-17T02:02:39.163Z,97544.06
2023-01-17T02:03:40.683Z,97544.88
2023-01-17T02:04:42.157Z,97546.28
2023-01-17T02:05:43.760Z,97550.97
2023-01-17T02:06:45.995Z,97551.22
2023-01-17T02:07:51.307Z,97550.09
2023-01-17T02:08:52.858Z,97554.50
2023-01-17T02:09:54.566Z,97551.44
2023-01-17T02:10:56.035Z,97557.25
2023-01-17T02:11:57.536Z,97555.69
2023-01-17T02:12:59.020Z,97557.88
2023-01-17T02:14:00.540Z,97560.69
2023-01-17T02:15:02.114Z,97553.84
2023-01-17T02:16:15.449Z,97561.00
2023-01-17T02:17:35.907Z,97566.75
2023-01-17T02:18:55.845Z,97562.94
2023-01-17T02:20:16.063Z,97561.53
2023-01-17T02:21:20.594Z,97571.47
2023-01-17T02:22:24.822Z,97570.41
2023-01-17T02:23:49.537Z,97565.50
2023-01-17T02:25:17.563Z,97561.38
2023-01-17T02:26:41.409Z,97564.69
2023-01-17T02:28:02.668Z,97572.66
2023-01-17T02:29:22.795Z,97564.13
2023-01-17T02:30:32.272Z,97569.38
2023-01-17T02:31:53.840Z,97565.81
2023-01-17T02:32:55.383Z,97569.44
2023-01-17T02:33:56.849Z,97568.56
2023-01-17T02:35:21.689Z,97570.56
2023-01-17T02:36:24.647Z,97558.69
2023-01-17T02:37:37.457Z,97568.31
2023-01-17T02:38:41.721Z,97562.81
2023-01-17T02:39:45.184Z,97565.66
2023-01-17T02:40:53.280Z,97552.13
2023-01-17T02:41:55.682Z,97563.19
2023-01-17T02:42:58.379Z,97561.09
2023-01-17T02:43:59.875Z,97566.63
2023-01-17T02:45:02.074Z,97566.63
2023-01-17T02:46:03.828Z,97561.91
2023-01-17T02:47:15.885Z,97558.84
2023-01-17T02:48:17.989Z,97561.09
2023-01-17T02:49:20.117Z,97564.38
2023-01-17T02:50:22.452Z,97564.75
2023-01-17T02:51:42.585Z,97559.75
2023-01-17T02:53:04.567Z,97556.22
2023-01-17T02:54:08.671Z,97551.31
2023-01-17T02:55:14.204Z,97557.91
2023-01-17T02:56:19.689Z,97563.63
2023-01-17T02:57:21.149Z,97558.13
2023-01-17T02:58:40.470Z,97555.66
2023-01-17T02:59:52.781Z,97556.53
2023-01-17T03:01:12.694Z,97553.63
2023-01-17T03:02:32.770Z,97550.56
2023-01-17T03:03:45.231Z,97554.66
2023-01-17T03:04:51.401Z,97556.31
2023-01-17T03:06:02.018Z,97557.91
2023-01-17T03:07:05.201Z,97553.47
2023-01-17T03:08:06.756Z,97562.31
2023-01-17T03:09:08.330Z,97552.28
2023-01-17T03:10:10.160Z,97564.16
2023-01-17T03:11:11.884Z,97561.91
2023-01-17T03:12:13.405Z,97571.53
2023-01-17T03:13:14.896Z,97567.97
2023-01-17T03:14:16.483Z,97568.25
2023-01-17T03:15:18.003Z,97572.66
2023-01-17T03:16:21.089Z,97566.00
2023-01-17T03:17:23.588Z,97561.84
2023-01-17T03:18:25.093Z,97569.31
2023-01-17T03:19:26.652Z,97573.72
2023-01-17T03:20:28.207Z,97574.84
2023-01-17T03:21:29.671Z,97580.38
2023-01-17T03:22:31.180Z,97577.06
2023-01-17T03:23:32.704Z,97570.97
2023-01-17T03:24:34.267Z,97578.72
2023-01-17T03:25:35.767Z,97584.22
2023-01-17T03:26:37.894Z,97576.50
2023-01-17T03:27:39.361Z,97584.47
2023-01-17T03:28:40.833Z,97580.00
2023-01-17T03:29:42.394Z,97587.16
2023-01-17T03:30:44.038Z,97585.31
2023-01-17T03:31:46.598Z,97584.69
2023-01-17T03:32:48.103Z,97590.00
2023-01-17T03:33:49.690Z,97587.53
2023-01-17T03:34:51.163Z,97583.66
2023-01-17T03:35:54.700Z,97580.91
2023-01-17T03:36:56.189Z,97579.78
2023-01-17T03:37:57.751Z,97578.94
2023-01-17T03:38:59.288Z,97583.06
2023-01-17T03:40:00.775Z,97588.19
2023-01-17T03:41:02.296Z,97577.44
2023-01-17T03:42:03.852Z,97580.19
2023-01-17T03:43:05.331Z,97585.72
2023-01-17T03:44:06.903Z,97582.09
2023-01-17T03:45:08.663Z,97582.31
2023-01-17T03:46:20.497Z,97590.06
2023-01-17T03:47:21.993Z,97582.91
2023-01-17T03:48:23.513Z,97585.16
2023-01-17T03:49:24.977Z,97575.75
2023-01-17T03:50:26.520Z,97575.75
2023-01-17T03:51:28.084Z,97569.59
2023-01-17T03:52:29.612Z,97572.88
2023-01-17T03:53:31.133Z,97571.75
2023-01-17T03:54:34.456Z,97575.34
2023-01-17T03:55:35.968Z,97575.13
2023-01-17T03:56:37.472Z,97579.03
2023-01-17T03:57:39.138Z,97563.03
2023-01-17T03:58:40.590Z,97573.84
2023-01-17T03:59:42.035Z,97572.44
2023-01-17T04:00:43.571Z,97574.09
2023-01-17T04:01:45.210Z,97571.03
2023-01-17T04:02:46.733Z,97566.31
2023-01-17T04:03:48.347Z,97570.22
2023-01-17T04:04:50.181Z,97574.91
2023-01-17T04:05:51.734Z,97581.28
2023-01-17T04:06:53.278Z,97580.19
2023-01-17T04:07:54.807Z,97580.19
2023-01-17T04:08:56.532Z,97591.25
2023-01-17T04:09:58.013Z,97591.25
2023-01-17T04:10:59.587Z,97583.78
2023-01-17T04:12:01.666Z,97590.69
2023-01-17T04:13:03.136Z,97592.31
2023-01-17T04:14:04.650Z,97585.97
2023-01-17T04:15:06.362Z,97586.03
2023-01-17T04:16:09.731Z,97595.06
2023-01-17T04:17:12.115Z,97598.13
2023-01-17T04:18:13.637Z,97593.50
2023-01-17T04:19:15.139Z,97598.28
2023-01-17T04:20:18.399Z,97593.94
2023-01-17T04:21:19.892Z,97602.88
2023-01-17T04:22:21.389Z,97605.53
2023-01-17T04:23:22.843Z,97601.47
2023-01-17T04:24:24.646Z,97602.66
2023-01-17T04:25:26.128Z,97606.25
2023-01-17T04:26:27.685Z,97605.13
2023-01-17T04:27:31.226Z,97608.81
2023-01-17T04:28:32.779Z,97610.47
2023-01-17T04:29:34.325Z,97612.09
2023-01-17T04:30:35.870Z,97603.81
2023-01-17T04:31:37.436Z,97604.94
2023-01-17T04:32:38.984Z,97608.28
2023-01-17T04:33:40.491Z,97612.66
2023-01-17T04:34:41.983Z,97607.59
2023-01-17T04:35:43.460Z,97608.09
2023-01-17T04:36:45.149Z,97622.69
2023-01-17T04:37:46.966Z,97616.28
2023-01-17T04:38:48.470Z,97612.66
2023-01-17T04:39:49.992Z,97612.56
2023-01-17T04:40:51.456Z,97615.94
2023-01-17T04:41:52.949Z,97616.75
2023-01-17T04:42:54.520Z,97613.13
2023-01-17T04:43:56.069Z,97615.88
2023-01-17T04:44:57.577Z,97621.31
2023-01-17T04:45:59.102Z,97625.47
2023-01-17T04:47:02.062Z,97624.66
2023-01-17T04:48:05.071Z,97624.16
2023-01-17T04:49:06.609Z,97621.94
2023-01-17T04:50:08.696Z,97632.09
2023-01-17T04:51:10.219Z,97625.69
2023-01-17T04:52:11.784Z,97609.72
2023-01-17T04:53:13.252Z,97609.72
2023-01-17T04:54:14.806Z,97619.69
2023-01-17T04:55:16.326Z,97622.09
2023-01-17T04:56:17.814Z,97614.84
2023-01-17T04:57:19.622Z,97613.22
2023-01-17T04:58:21.144Z,97602.16
2023-01-17T04:59:22.666Z,97604.88
2023-01-17T05:00:24.402Z,97610.91
2023-01-17T05:01:26.088Z,97602.03
2023-01-17T05:02:27.676Z,97604.78
2023-01-17T05:03:29.503Z,97613.06
2023-01-17T05:04:31.005Z,97613.44
2023-01-17T05:05:32.561Z,97619.94
2023-01-17T05:06:34.175Z,97623.34
2023-01-17T05:07:35.923Z,97622.84
2023-01-17T05:08:37.687Z,97627.78
2023-01-17T05:09:39.243Z,97633.31
2023-01-17T05:10:40.797Z,97629.44
2023-01-17T05:11:42.279Z,97638.50
2023-01-17T05:12:43.750Z,97630.22
2023-01-17T05:13:47.336Z,97640.44
2023-01-17T05:14:49.101Z,97638.84
2023-01-17T05:15:50.678Z,97631.50
2023-01-17T05:16:52.868Z,97636.19
2023-01-17T05:17:54.371Z,97638.59
2023-01-17T05:18:55.992Z,97631.13
2023-01-17T05:19:57.462Z,97638.38
2023-01-17T05:21:02.787Z,97628.38
2023-01-17T05:22:15.039Z,97634.97
2023-01-17T05:23:16.707Z,97626.63
2023-01-17T05:24:18.866Z,97628.78
2023-01-17T05:25:45.787Z,97629.34
2023-01-17T05:26:54.616Z,97628.16
2023-01-17T05:27:56.498Z,97624.25
2023-01-17T05:28:58.006Z,97625.97
2023-01-17T05:29:59.500Z,97630.16
2023-01-17T05:31:01.479Z,97625.69
2023-01-17T05:32:03.394Z,97632.84
2023-01-17T05:33:04.870Z,97627.53
2023-01-17T05:34:06.374Z,97623.09
2023-01-17T05:35:08.148Z,97629.66
2023-01-17T05:36:09.665Z,97635.41
2023-01-17T05:37:11.282Z,97634.28
2023-01-17T05:38:12.731Z,97636.31
2023-01-17T05:39:14.247Z,97644.28
2023-01-17T05:40:18.796Z,97635.19
2023-01-17T05:41:20.295Z,97633.16
2023-01-17T05:42:21.829Z,97638.47
2023-01-17T05:43:23.454Z,97627.41
2023-01-17T05:44:25.013Z,97636.22
2023-01-17T05:45:26.967Z,97625.69
2023-01-17T05:46:28.451Z,97634.75
2023-01-17T05:47:29.929Z,97630.56
2023-01-17T05:48:31.488Z,97623.38
2023-01-17T05:49:32.956Z,97627.06
2023-01-17T05:50:35.197Z,97631.81
2023-01-17T05:51:37.903Z,97632.50
2023-01-17T05:52:39.462Z,97636.34
2023-01-17T05:53:40.962Z,97634.78
2023-01-17T05:54:42.491Z,97631.00
2023-01-17T05:55:43.996Z,97636.00
2023-01-17T05:56:45.582Z,97640.97
2023-01-17T05:57:47.073Z,97640.41
2023-01-17T05:58:48.557Z,97633.44
2023-01-17T05:59:50.068Z,97627.84
2023-01-17T06:00:51.583Z,97622.63
2023-01-17T06:01:54.331Z,97629.28
2023-01-17T06:02:56.419Z,97630.59
2023-01-17T06:03:58.094Z,97639.66
2023-01-17T06:05:01.305Z,97631.91
2023-01-17T06:06:04.178Z,97628.00
2023-01-17T06:07:05.640Z,97633.03
2023-01-17T06:08:07.196Z,97637.44
2023-01-17T06:09:08.764Z,97634.59
2023-01-17T06:10:10.879Z,97634.59
2023-01-17T06:11:12.362Z,97636.22
2023-01-17T06:12:13.852Z,97622.94
2023-01-17T06:13:20.726Z,97638.13
2023-01-17T06:14:22.267Z,97641.41
2023-01-17T06:15:23.791Z,97639.75
2023-01-17T06:16:25.349Z,97635.88
2023-01-17T06:17:26.886Z,97636.38
2023-01-17T06:18:28.364Z,97652.75
2023-01-17T06:19:30.021Z,97651.09
2023-01-17T06:20:31.471Z,97646.09
2023-01-17T06:21:32.988Z,97651.63
2023-01-17T06:22:34.521Z,97641.31
2023-01-17T06:23:36.011Z,97645.97
2023-01-17T06:24:37.544Z,97639.84
2023-01-17T06:25:39.534Z,97639.22
2023-01-17T06:26:43.238Z,97633.69
2023-01-17T06:27:44.737Z,97640.34
2023-01-17T06:28:47.021Z,97637.06
2023-01-17T06:29:48.556Z,97642.91
2023-01-17T06:30:50.052Z,97637.44
2023-01-17T06:31:51.593Z,97635.72
2023-01-17T06:32:53.907Z,97635.72
2023-01-17T06:33:55.518Z,97633.25
2023-01-17T06:34:56.998Z,97627.72
2023-01-17T06:35:58.454Z,97635.72
2023-01-17T06:37:00.056Z,97643.72
2023-01-17T06:38:01.555Z,97638.19
2023-01-17T06:39:03.068Z,97634.91
2023-01-17T06:40:04.938Z,97633.47
2023-01-17T06:41:06.488Z,97627.72
2023-01-17T06:42:08.003Z,97638.25
2023-01-17T06:43:09.477Z,97640.44
2023-01-17T06:44:10.970Z,97631.03
2023-01-17T06:45:12.572Z,97631.59
2023-01-17T06:46:14.102Z,97632.81
2023-01-17T06:47:15.667Z,97635.25
2023-01-17T06:48:17.153Z,97632.59
2023-01-17T06:49:18.761Z,97633.47
2023-01-17T06:50:20.263Z,97632.34
2023-01-17T06:51:21.790Z,97640.09
2023-01-17T06:52:23.336Z,97636.81
2023-01-17T06:53:24.918Z,97638.16
2023-01-17T06:54:27.022Z,97630.41
2023-01-17T06:55:28.906Z,97635.69
2023-01-17T06:56:31.542Z,97628.84
2023-01-17T06:57:33.184Z,97629.66
2023-01-17T06:58:34.853Z,97629.44
2023-01-17T06:59:36.426Z,97628.97
2023-01-17T07:00:40.599Z,97635.31
2023-01-17T07:01:42.657Z,97622.03
2023-01-17T07:02:47.806Z,97629.19
2023-01-17T07:03:49.474Z,97620.84
2023-01-17T07:04:51.061Z,97619.94
2023-01-17T07:05:53.147Z,97629.88
2023-01-17T07:06:54.695Z,97625.13
2023-01-17T07:07:56.269Z,97615.25
2023-01-17T07:08:59.044Z,97619.06
2023-01-17T07:10:00.870Z,97616.88
2023-01-17T07:11:03.147Z,97616.97
2023-01-17T07:12:04.665Z,97620.84
2023-01-17T07:13:06.216Z,97620.84
2023-01-17T07:14:11.838Z,97617.78
2023-01-17T07:15:13.472Z,97614.50
2023-01-17T07:16:15.108Z,97625.09
2023-01-17T07:17:16.631Z,97628.06
2023-01-17T07:18:20.721Z,97623.66
2023-01-17T07:19:22.522Z,97624.47
2023-01-17T07:20:24.073Z,97623.38
2023-01-17T07:21:25.589Z,97626.72
2023-01-17T07:22:27.152Z,97619.25
2023-01-17T07:23:28.671Z,97617.69
2023-01-17T07:24:30.215Z,97616.56
2023-01-17T07:25:31.697Z,97615.44
2023-01-17T07:26:33.260Z,97611.06
2023-01-17T07:27:34.774Z,97613.00
2023-01-17T07:28:36.287Z,97615.22
2023-01-17T07:29:37.727Z,97613.28
2023-01-17T07:30:39.301Z,97613.28
2023-01-17T07:31:40.917Z,97609.09
2023-01-17T07:32:42.471Z,97609.09
2023-01-17T07:33:43.970Z,97607.69
2023-01-17T07:34:47.748Z,97602.97
2023-01-17T07:35:49.275Z,97611.22
2023-01-17T07:36:50.772Z,97609.19
2023-01-17T07:37:52.386Z,97605.25
2023-01-17T07:38:54.070Z,97610.69
2023-01-17T07:39:55.609Z,97607.41
2023-01-17T07:41:00.120Z,97611.22
2023-01-17T07:42:01.689Z,97610.84
2023-01-17T07:43:03.277Z,97608.31
2023-01-17T07:44:06.152Z,97613.22
2023-01-17T07:45:08.086Z,97605.22
2023-01-17T07:46:09.634Z,97607.69
2023-01-17T07:47:11.388Z,97610.16
2023-01-17T07:48:12.970Z,97588.28
2023-01-17T07:49:14.690Z,97601.19
2023-01-17T07:50:16.205Z,97608.91
2023-01-17T07:51:17.964Z,97596.78
2023-01-17T07:52:19.463Z,97599.03
2023-01-17T07:53:21.647Z,97595.44
2023-01-17T07:54:23.210Z,97591.25
2023-01-17T07:55:24.764Z,97595.09
2023-01-17T07:56:26.243Z,97592.03
2023-01-17T07:57:27.706Z,97582.31
2023-01-17T07:58:29.279Z,97576.78
2023-01-17T07:59:30.832Z,97581.63
2023-01-17T08:00:32.311Z,97572.94
2023-01-17T08:01:33.918Z,97572.03
2023-01-17T08:02:35.509Z,97573.19
2023-01-17T08:03:39.957Z,97574.66
2023-01-17T08:04:41.632Z,97571.34
2023-01-17T08:05:43.338Z,97569.94
2023-01-17T08:06:47.558Z,97560.19
2023-01-17T08:07:49.222Z,97560.72
2023-01-17T08:08:50.859Z,97554.56
2023-01-17T08:09:52.405Z,97557.84
2023-01-17T08:10:53.999Z,97548.88
2023-01-17T08:11:55.483Z,97548.84
2023-01-17T08:12:57.094Z,97546.56
2023-01-17T08:13:59.720Z,97546.22
2023-01-17T08:15:01.213Z,97545.84
2023-01-17T08:16:03.409Z,97556.06
2023-01-17T08:17:10.993Z,97553.53
2023-01-17T08:18:12.523Z,97540.22
2023-01-17T08:19:14.613Z,97538.81
2023-01-17T08:20:16.212Z,97542.97
2023-01-17T08:21:17.701Z,97540.09
2023-01-17T08:22:19.248Z,97539.16
2023-01-17T08:23:20.831Z,97538.06
2023-01-17T08:24:22.312Z,97536.59
2023-01-17T08:25:24.191Z,97538.75
2023-01-17T08:26:25.689Z,97542.56
2023-01-17T08:27:28.379Z,97539.47
2023-01-17T08:28:29.946Z,97537.22
2023-01-17T08:29:31.566Z,97542.16
2023-01-17T08:30:33.092Z,97543.16
2023-01-17T08:31:34.802Z,97553.47
2023-01-17T08:32:38.695Z,97546.59
2023-01-17T08:33:40.212Z,97544.16
2023-01-17T08:34:41.720Z,97540.03
2023-01-17T08:35:55.335Z,97538.75
2023-01-17T08:36:56.833Z,97537.56
2023-01-17T08:37:59.966Z,97544.28
2023-01-17T08:39:01.551Z,97539.84
2023-01-17T08:40:04.188Z,97541.78
2023-01-17T08:41:05.667Z,97542.75
2023-01-17T08:42:07.250Z,97548.09
2023-01-17T08:43:08.760Z,97540.88
2023-01-17T08:44:10.324Z,97535.09
2023-01-17T08:45:11.916Z,97534.91
2023-01-17T08:46:13.480Z,97536.63
2023-01-17T08:47:14.963Z,97535.44
2023-01-17T08:48:16.449Z,97530.34
2023-01-17T08:49:18.038Z,97531.94
2023-01-17T08:50:20.745Z,97543.19
2023-01-17T08:51:24.800Z,97544.13
2023-01-17T08:52:29.188Z,97543.75
2023-01-17T08:53:32.475Z,97541.91
2023-01-17T08:54:34.074Z,97542.19
2023-01-17T08:55:39.529Z,97532.91
2023-01-17T08:56:42.791Z,97545.78
2023-01-17T08:57:44.301Z,97541.69
2023-01-17T08:58:45.828Z,97539.44
2023-01-17T08:59:47.559Z,97542.50
2023-01-17T09:00:49.161Z,97546.34
2023-01-17T09:01:52.479Z,97545.81
2023-01-17T09:02:54.267Z,97549.19
2023-01-17T09:03:55.934Z,97536.16
2023-01-17T09:04:57.438Z,97537.25
2023-01-17T09:06:02.536Z,97549.63
2023-01-17T09:07:05.202Z,97544.06
2023-01-17T09:08:06.686Z,97546.63
2023-01-17T09:09:08.465Z,97548.97
2023-01-17T09:10:10.250Z,97543.94
2023-01-17T09:11:12.101Z,97545.47
2023-01-17T09:12:13.590Z,97549.78
2023-01-17T09:13:15.266Z,97548.97
2023-01-17T09:14:17.024Z,97547.09
2023-01-17T09:15:20.213Z,97551.66
2023-01-17T09:16:21.767Z,97547.25
2023-01-17T09:17:23.306Z,97555.03
2023-01-17T09:18:25.255Z,97559.69
2023-01-17T09:19:27.079Z,97552.69
2023-01-17T09:20:30.834Z,97550.38
2023-01-17T09:21:32.357Z,97555.69
2023-01-17T09:22:33.961Z,97553.31
2023-01-17T09:23:35.563Z,97563.97
2023-01-17T09:24:37.105Z,97559.16
2023-01-17T09:25:39.865Z,97566.59
2023-01-17T09:26:41.393Z,97566.94
2023-01-17T09:27:46.490Z,97563.34
2023-01-17T09:28:48.217Z,97560.34
2023-01-17T09:29:49.725Z,97563.91
2023-01-17T09:30:51.295Z,97571.66
2023-01-17T09:31:52.789Z,97573.03
2023-01-17T09:32:54.831Z,97564.72
2023-01-17T09:33:56.641Z,97568.03
2023-01-17T09:35:00.791Z,97571.72
2023-01-17T09:36:04.346Z,97572.88
2023-01-17T09:37:05.968Z,97570.53
2023-01-17T09:38:07.500Z,97567.59
2023-01-17T09:39:09.517Z,97567.22
2023-01-17T09:40:12.694Z,97573.81
2023-01-17T09:41:18.483Z,97570.75
2023-01-17T09:42:27.801Z,97575.16
2023-01-17T09:43:29.277Z,97572.94
2023-01-17T09:44:39.153Z,97577.72
2023-01-17T09:45:40.690Z,97565.47
2023-01-17T09:46:43.251Z,97568.28
2023-01-17T09:47:53.470Z,97564.63
2023-01-17T09:49:14.710Z,97565.56
2023-01-17T09:50:21.232Z,97571.09
2023-01-17T09:51:24.250Z,97568.31
2023-01-17T09:52:25.824Z,97578.56
2023-01-17T09:53:27.269Z,97566.50
2023-01-17T09:54:32.271Z,97566.78
2023-01-17T09:55:52.162Z,97560.06
2023-01-17T09:57:04.437Z,97570.53
2023-01-17T09:58:10.668Z,97570.69
2023-01-17T09:59:33.172Z,97567.13
2023-01-17T10:00:47.353Z,97574.00
2023-01-17T10:01:57.894Z,97574.19
2023-01-17T10:03:20.275Z,97565.16
2023-01-17T10:04:24.640Z,97564.81
2023-01-17T10:05:32.271Z,97569.03
2023-01-17T10:06:36.828Z,97570.03
2023-01-17T10:07:38.311Z,97574.00
2023-01-17T10:09:03.733Z,97577.44
2023-01-17T10:10:18.458Z,97573.78
2023-01-17T10:11:26.432Z,97571.53
2023-01-17T10:12:27.979Z,97575.97
2023-01-17T10:13:32.473Z,97575.75
2023-01-17T10:14:41.772Z,97575.97
2023-01-17T10:15:55.280Z,97579.56
2023-01-17T10:17:03.037Z,97572.84
2023-01-17T10:18:30.455Z,97573.50
2023-01-17T10:19:49.051Z,97579.53
2023-01-17T10:20:54.336Z,97586.28
2023-01-17T10:21:55.788Z,97579.91
2023-01-17T10:23:18.034Z,97564.19
2023-01-17T10:24:28.346Z,97581.03
2023-01-17T10:25:39.166Z,97571.00
2023-01-17T10:26:42.025Z,97570.44
2023-01-17T10:27:46.067Z,97567.63
2023-01-17T10:28:48.832Z,97566.56
2023-01-17T10:29:50.339Z,97566.16
2023-01-17T10:30:52.626Z,97561.78
2023-01-17T10:31:55.930Z,97568.31
2023-01-17T10:32:57.527Z,97571.13
2023-01-17T10:34:13.008Z,97568.53
2023-01-17T10:35:25.627Z,97562.69
2023-01-17T10:36:27.834Z,97562.41
2023-01-17T10:37:41.870Z,97552.19
2023-01-17T10:38:44.479Z,97560.25
2023-01-17T10:39:46.835Z,97554.66
2023-01-17T10:40:51.552Z,97555.97
2023-01-17T10:41:58.035Z,97557.94
2023-01-17T10:42:59.664Z,97556.66
2023-01-17T10:44:03.640Z,97555.28
2023-01-17T10:45:14.118Z,97551.88
2023-01-17T10:46:17.488Z,97554.44
2023-01-17T10:47:22.652Z,97553.84
2023-01-17T10:48:24.222Z,97546.81
2023-01-17T10:49:26.321Z,97535.56
2023-01-17T10:50:28.256Z,97539.03
2023-01-17T10:51:49.932Z,97541.25
2023-01-17T10:53:01.339Z,97544.13
2023-01-17T10:54:20.921Z,97540.44
2023-01-17T10:55:41.253Z,97543.00
2023-01-17T10:56:42.834Z,97538.88
2023-01-17T10:57:45.130Z,97542.88
2023-01-17T10:58:48.234Z,97545.91
2023-01-17T10:59:50.108Z,97541.72
2023-01-17T11:00:58.837Z,97536.31
2023-01-17T11:02:00.735Z,97537.59
2023-01-17T11:03:02.372Z,97532.78
2023-01-17T11:04:03.929Z,97537.59
2023-01-17T11:05:11.368Z,97536.78
2023-01-17T11:06:22.494Z,97534.47
2023-01-17T11:07:24.896Z,97529.50
2023-01-17T11:08:26.381Z,97525.38
2023-01-17T11:09:37.081Z,97521.06
2023-01-17T11:10:42.767Z,97527.59
2023-01-17T11:11:45.238Z,97522.53
2023-01-17T11:12:47.212Z,97519.72
2023-01-17T11:13:48.697Z,97527.69
2023-01-17T11:15:10.539Z,97515.66
2023-01-17T11:16:16.707Z,97517.97
2023-01-17T11:17:18.240Z,97519.59
2023-01-17T11:18:20.038Z,97515.59
2023-01-17T11:19:27.873Z,97511.41
2023-01-17T11:20:29.404Z,97514.59
2023-01-17T11:21:30.928Z,97508.16
2023-01-17T11:22:32.442Z,97505.81
2023-01-17T11:23:34.274Z,97498.94
2023-01-17T11:24:36.088Z,97503.34
2023-01-17T11:25:37.577Z,97508.47
2023-01-17T11:26:41.247Z,97505.22
2023-01-17T11:27:44.432Z,97507.34
2023-01-17T11:28:45.945Z,97508.06
2023-01-17T11:29:47.456Z,97500.84
2023-01-17T11:30:58.507Z,97498.09
2023-01-17T11:32:26.431Z,97501.44
2023-01-17T11:33:56.786Z,97496.66
2023-01-17T11:35:05.360Z,97497.38
2023-01-17T11:36:09.284Z,97492.94
2023-01-17T11:37:19.803Z,97497.59
2023-01-17T11:38:21.934Z,97484.75
2023-01-17T11:39:27.717Z,97481.78
2023-01-17T11:40:34.909Z,97477.34
2023-01-17T11:41:40.020Z,97480.72
2023-01-17T11:42:41.554Z,97484.81
2023-01-17T11:43:53.841Z,97483.09
2023-01-17T11:44:55.343Z,97485.31
2023-01-17T11:46:01.154Z,97476.47
2023-01-17T11:47:09.540Z,97480.66
2023-01-17T11:48:13.680Z,97472.97
2023-01-17T11:49:25.632Z,97472.28
2023-01-17T11:50:27.606Z,97478.78
2023-01-17T11:51:32.171Z,97465.53
2023-01-17T11:52:33.848Z,97474.38
2023-01-17T11:53:37.072Z,97472.28
2023-01-17T11:54:42.677Z,97469.03
2023-01-17T11:55:57.511Z,97476.94
2023-01-17T11:57:01.605Z,97476.22
2023-01-17T11:58:03.103Z,97467.75
2023-01-17T11:59:07.382Z,97468.75
2023-01-17T12:00:08.854Z,97473.06
2023-01-17T12:01:27.057Z,97473.44
2023-01-17T12:02:31.933Z,97467.03
2023-01-17T12:03:36.732Z,97463.75
2023-01-17T12:04:42.803Z,97465.28
2023-01-17T12:05:53.560Z,97460.84
2023-01-17T12:07:03.007Z,97469.25
2023-01-17T12:08:26.752Z,97461.53
2023-01-17T12:09:28.251Z,97455.47
2023-01-17T12:10:32.266Z,97464.19
2023-01-17T12:12:04.375Z,97462.44
2023-01-17T12:13:43.534Z,97455.78
2023-01-17T12:15:03.592Z,97451.91
2023-01-17T12:16:32.759Z,97451.41
2023-01-17T12:17:51.356Z,97447.31
2023-01-17T12:19:11.355Z,97454.06
2023-01-17T12:20:21.896Z,97448.16
2023-01-17T12:21:38.565Z,97449.78
2023-01-17T12:22:56.505Z,97445.34
2023-01-17T12:23:58.751Z,97450.47
2023-01-17T12:25:14.908Z,97440.47
2023-01-17T12:26:19.761Z,97448.38
2023-01-17T12:27:27.392Z,97441.16
2023-01-17T12:28:34.828Z,97434.41
2023-01-17T12:29:58.845Z,97426.72
2023-01-17T12:31:09.859Z,97433.69
2023-01-17T12:32:17.177Z,97428.09
2023-01-17T12:33:34.121Z,97418.09
2023-01-17T12:34:56.250Z,97421.22
2023-01-17T12:35:58.921Z,97417.84
2023-01-17T12:37:02.998Z,97423.44
2023-01-17T12:38:27.359Z,97418.50
2023-01-17T12:39:34.971Z,97416.06
2023-01-17T12:41:02.553Z,97414.09
2023-01-17T12:42:13.924Z,97415.72
2023-01-17T12:43:19.583Z,97419.69
2023-01-17T12:44:32.840Z,97409.66
2023-01-17T12:45:38.651Z,97416.28
2023-01-17T12:46:43.217Z,97411.88
2023-01-17T12:47:45.361Z,97405.47